createdAt,value
2022-09-01T00:01:50.259Z,101103.91
2022-09-01T00:04:20.721Z,101099.69
2022-09-01T00:06:49.668Z,101102.15
2022-09-01T00:09:20.132Z,101096.11
2022-09-01T00:11:51.322Z,101093.27
2022-09-01T00:14:29.649Z,101095.17
2022-09-01T00:16:59.753Z,101094.79
2022-09-01T00:19:29.183Z,101093.24
2022-09-01T00:21:57.667Z,101094.64
2022-09-01T00:24:27.187Z,101096.09
2022-09-01T00:26:57.090Z,101095.20
2022-09-01T00:29:26.809Z,101096.05
2022-09-01T00:31:55.851Z,101096.79
2022-09-01T00:34:24.607Z,101096.52
2022-09-01T00:36:53.157Z,101092.88
2022-09-01T00:39:21.683Z,101095.60
2022-09-01T00:41:51.377Z,101096.22
2022-09-01T00:44:23.641Z,101094.52
2022-09-01T00:46:55.916Z,101094.96
2022-09-01T00:49:31.590Z,101091.85
2022-09-01T00:52:07.455Z,101092.55
2022-09-01T00:54:39.368Z,101090.80
2022-09-01T00:57:09.381Z,101088.27
2022-09-01T00:59:41.472Z,101088.96
2022-09-01T01:02:10.958Z,101087.52
2022-09-01T01:04:43.308Z,101089.27
2022-09-01T01:07:13.268Z,101091.02
2022-09-01T01:09:43.875Z,101092.45
2022-09-01T01:12:17.782Z,101093.72
2022-09-01T01:14:49.863Z,101089.98
2022-09-01T01:17:19.790Z,101093.60
2022-09-01T01:20:09.742Z,101093.90
2022-09-01T01:23:02.326Z,101095.27
2022-09-01T01:25:34.201Z,101096.45
2022-09-01T01:28:09.358Z,101096.42
2022-09-01T01:30:39.472Z,101095.41
2022-09-01T01:33:08.783Z,101090.75
2022-09-01T01:35:37.527Z,101088.33
2022-09-01T01:38:07.425Z,101089.31
2022-09-01T01:40:37.523Z,101087.24
2022-09-01T01:43:06.373Z,101087.70
2022-09-01T01:45:34.982Z,101087.20
2022-09-01T01:48:08.299Z,101087.20
2022-09-01T01:50:38.531Z,101086.26
2022-09-01T01:53:11.164Z,101086.58
2022-09-01T01:55:43.285Z,101087.54
2022-09-01T01:58:14.467Z,101090.65
2022-09-01T02:00:46.405Z,101088.56
2022-09-01T02:03:18.473Z,101090.32
2022-09-01T02:05:48.999Z,101086.02
2022-09-01T02:08:20.255Z,101087.94
2022-09-01T02:10:52.304Z,101084.83
2022-09-01T02:13:30.609Z,101084.60
2022-09-01T02:16:01.995Z,101079.30
2022-09-01T02:18:35.459Z,101080.30
2022-09-01T02:21:09.363Z,101079.54
2022-09-01T02:23:39.897Z,101081.27
2022-09-01T02:26:17.980Z,101081.58
2022-09-01T02:28:53.631Z,101080.55
2022-09-01T02:31:24.370Z,101080.84
2022-09-01T02:33:53.694Z,101080.48
2022-09-01T02:36:24.668Z,101081.35
2022-09-01T02:38:56.537Z,101079.98
2022-09-01T02:41:26.674Z,101078.01
2022-09-01T02:43:55.267Z,101083.92
2022-09-01T02:46:23.689Z,101084.11
2022-09-01T02:48:54.142Z,101086.02
2022-09-01T02:51:25.137Z,101088.34
2022-09-01T02:53:54.523Z,101089.52
2022-09-01T02:56:25.717Z,101087.98
2022-09-01T02:58:55.518Z,101084.86
2022-09-01T03:01:26.892Z,101086.77
2022-09-01T03:03:58.316Z,101089.45
2022-09-01T03:06:27.794Z,101087.59
2022-09-01T03:08:59.083Z,101089.90
2022-09-01T03:11:29.321Z,101088.05
2022-09-01T03:13:57.607Z,101085.17
2022-09-01T03:16:26.001Z,101081.20
2022-09-01T03:18:54.708Z,101086.95
2022-09-01T03:21:23.396Z,101090.95
2022-09-01T03:23:53.214Z,101090.33
2022-09-01T03:26:23.803Z,101088.81
2022-09-01T03:28:58.741Z,101091.30
2022-09-01T03:31:30.974Z,101094.13
2022-09-01T03:34:00.430Z,101101.92
2022-09-01T03:36:30.494Z,101103.55
2022-09-01T03:38:58.693Z,101106.46
2022-09-01T03:41:30.347Z,101101.80
2022-09-01T03:43:59.621Z,101097.98
2022-09-01T03:46:36.900Z,101100.93
2022-09-01T03:49:07.617Z,101102.29
2022-09-01T03:51:37.836Z,101101.30
2022-09-01T03:54:06.592Z,101098.86
2022-09-01T03:56:35.034Z,101094.33
2022-09-01T03:59:03.918Z,101093.36
2022-09-01T04:01:34.380Z,101091.08
2022-09-01T04:04:07.410Z,101087.92
2022-09-01T04:06:37.504Z,101086.75
2022-09-01T04:09:06.387Z,101091.67
2022-09-01T04:11:36.612Z,101091.40
2022-09-01T04:14:06.026Z,101095.04
2022-09-01T04:17:05.569Z,101096.02
2022-09-01T04:19:37.964Z,101097.09
2022-09-01T04:22:07.947Z,101097.55
2022-09-01T04:24:36.832Z,101098.00
2022-09-01T04:27:07.309Z,101094.52
2022-09-01T04:29:36.828Z,101092.45
2022-09-01T04:32:12.008Z,101091.00
2022-09-01T04:34:41.370Z,101093.01
2022-09-01T04:37:12.563Z,101094.70
2022-09-01T04:39:49.655Z,101098.10
2022-09-01T04:42:23.508Z,101094.33
2022-09-01T04:44:53.500Z,101094.99
2022-09-01T04:47:29.546Z,101099.13
2022-09-01T04:49:59.947Z,101100.08
2022-09-01T04:52:28.799Z,101103.98
2022-09-01T04:54:57.592Z,101105.22
2022-09-01T04:57:31.619Z,101100.94
2022-09-01T05:00:02.032Z,101100.05
2022-09-01T05:02:30.675Z,101098.84
2022-09-01T05:04:59.064Z,101098.02
2022-09-01T05:07:27.550Z,101097.36
2022-09-01T05:10:01.089Z,101095.10
2022-09-01T05:12:30.146Z,101099.49
2022-09-01T05:14:58.691Z,101102.77
2022-09-01T05:17:28.587Z,101100.26
2022-09-01T05:19:57.658Z,101101.92
2022-09-01T05:22:26.599Z,101101.30
2022-09-01T05:24:55.512Z,101096.46
2022-09-01T05:27:25.255Z,101096.87
2022-09-01T05:29:53.781Z,101102.45
2022-09-01T05:32:25.406Z,101102.14
2022-09-01T05:34:54.309Z,101104.59
2022-09-01T05:37:22.880Z,101103.33
2022-09-01T05:39:51.867Z,101099.92
2022-09-01T05:42:21.401Z,101099.89
2022-09-01T05:44:49.606Z,101095.84
2022-09-01T05:47:25.658Z,101096.19
2022-09-01T05:49:56.228Z,101096.50
2022-09-01T05:52:25.779Z,101098.84
2022-09-01T05:54:56.379Z,101099.27
2022-09-01T05:57:34.585Z,101093.70
2022-09-01T06:00:12.604Z,101098.55
2022-09-01T06:02:42.599Z,101096.55
2022-09-01T06:05:13.362Z,101095.90
2022-09-01T06:07:42.383Z,101098.61
2022-09-01T06:10:12.393Z,101096.89
2022-09-01T06:12:41.041Z,101094.48
2022-09-01T06:15:15.360Z,101097.10
2022-09-01T06:17:45.815Z,101099.70
2022-09-01T06:20:18.241Z,101096.86
2022-09-01T06:22:48.400Z,101096.45
2022-09-01T06:25:17.952Z,101097.77
2022-09-01T06:27:47.685Z,101098.98
2022-09-01T06:30:23.542Z,101099.20
2022-09-01T06:32:53.607Z,101098.17
2022-09-01T06:35:29.371Z,101098.58
2022-09-01T06:37:58.179Z,101097.90
2022-09-01T06:40:28.901Z,101104.49
2022-09-01T06:43:00.255Z,101107.64
2022-09-01T06:45:29.048Z,101109.56
2022-09-01T06:47:57.649Z,101112.08
2022-09-01T06:53:37.041Z,101114.87
2022-09-01T06:56:06.291Z,101110.09
2022-09-01T06:58:36.436Z,101106.95
2022-09-01T07:01:14.367Z,101109.73
2022-09-01T07:03:44.012Z,101110.39
2022-09-01T07:09:21.511Z,101107.06
2022-09-01T07:12:24.508Z,101108.09
2022-09-01T07:17:32.289Z,101113.69
2022-09-01T07:23:06.527Z,101112.44
2022-09-01T07:28:39.135Z,101108.13
2022-09-01T07:39:55.527Z,101100.67
2022-09-01T07:45:28.266Z,101108.13
2022-09-01T07:48:02.982Z,101112.46
2022-09-01T07:51:07.479Z,101109.77
2022-09-01T07:53:22.860Z,101112.67
2022-09-01T07:55:53.176Z,101110.80
2022-09-01T07:58:26.079Z,101112.14
2022-09-01T08:00:56.001Z,101112.02
2022-09-01T08:03:26.470Z,101114.91
2022-09-01T08:05:57.632Z,101109.86
2022-09-01T08:08:28.963Z,101112.61
2022-09-01T08:11:06.841Z,101113.17
2022-09-01T08:13:41.721Z,101108.09
2022-09-01T08:16:18.590Z,101109.94
2022-09-01T08:18:49.309Z,101109.56
2022-09-01T08:21:21.838Z,101106.18
2022-09-01T08:23:51.781Z,101104.85
2022-09-01T08:26:22.836Z,101105.16
2022-09-01T08:28:55.302Z,101102.20
2022-09-01T08:31:30.632Z,101103.41
2022-09-01T08:33:59.439Z,101101.00
2022-09-01T08:36:28.176Z,101104.70
2022-09-01T08:38:56.580Z,101100.11
2022-09-01T08:41:36.095Z,101106.33
2022-09-01T08:44:11.046Z,101109.94
2022-09-01T08:46:42.635Z,101110.70
2022-09-01T08:49:31.396Z,101107.62
2022-09-01T08:52:16.085Z,101110.16
2022-09-01T08:54:47.552Z,101110.52
2022-09-01T08:57:20.569Z,101110.06
2022-09-01T08:59:49.590Z,101107.80
2022-09-01T09:02:33.501Z,101104.41
2022-09-01T09:05:22.396Z,101097.48
2022-09-01T09:08:07.043Z,101090.58
2022-09-01T09:10:43.374Z,101091.25
2022-09-01T09:13:19.543Z,101094.19
2022-09-01T09:15:53.077Z,101091.70
2022-09-01T09:18:39.143Z,101098.70
2022-09-01T09:21:14.147Z,101087.14
2022-09-01T09:23:44.560Z,101080.05
2022-09-01T09:26:21.864Z,101078.17
2022-09-01T09:28:51.200Z,101076.48
2022-09-01T09:31:37.629Z,101078.72
2022-09-01T09:34:18.261Z,101072.73
2022-09-01T09:36:53.979Z,101073.73
2022-09-01T09:39:24.034Z,101072.91
2022-09-01T09:42:08.567Z,101071.23
2022-09-01T09:44:43.129Z,101072.63
2022-09-01T09:47:33.401Z,101074.94
2022-09-01T09:50:20.176Z,101072.13
2022-09-01T09:52:50.547Z,101075.30
2022-09-01T09:55:28.281Z,101072.11
2022-09-01T09:58:00.147Z,101074.30
2022-09-01T10:00:30.428Z,101066.20
2022-09-01T10:03:07.853Z,101069.83
2022-09-01T10:05:43.270Z,101066.01
2022-09-01T10:08:15.970Z,101067.56
2022-09-01T10:10:58.342Z,101065.75
2022-09-01T10:13:28.996Z,101060.70
2022-09-01T10:15:59.186Z,101060.39
2022-09-01T10:18:36.953Z,101063.58
2022-09-01T10:21:10.724Z,101068.42
2022-09-01T10:23:41.680Z,101070.02
2022-09-01T10:26:14.778Z,101068.85
2022-09-01T10:28:49.906Z,101064.41
2022-09-01T10:31:19.973Z,101072.39
2022-09-01T10:33:49.062Z,101067.22
2022-09-01T10:36:17.700Z,101067.08
2022-09-01T10:38:54.319Z,101069.50
2022-09-01T10:41:47.754Z,101061.86
2022-09-01T10:44:22.525Z,101062.99
2022-09-01T10:46:51.590Z,101061.73
2022-09-01T10:49:37.438Z,101065.70
2022-09-01T10:52:12.998Z,101061.50
2022-09-01T10:54:58.848Z,101062.83
2022-09-01T10:57:42.410Z,101056.11
2022-09-01T11:01:26.130Z,101060.65
2022-09-01T11:03:56.474Z,101050.20
2022-09-01T11:07:14.471Z,101054.95
2022-09-01T11:09:45.551Z,101060.58
2022-09-01T11:12:44.557Z,101054.45
2022-09-01T11:15:36.156Z,101056.21
2022-09-01T11:18:09.312Z,101050.29
2022-09-01T11:20:39.324Z,101046.52
2022-09-01T11:23:12.419Z,101041.23
2022-09-01T11:25:43.473Z,101047.81
2022-09-01T11:28:37.015Z,101049.67
2022-09-01T11:31:23.382Z,101053.17
2022-09-01T11:34:01.417Z,101050.52
2022-09-01T11:36:34.323Z,101052.22
2022-09-01T11:39:17.213Z,101045.77
2022-09-01T11:41:58.625Z,101046.21
2022-09-01T11:44:36.319Z,101051.73
2022-09-01T11:47:10.752Z,101052.30
2022-09-01T11:49:50.827Z,101054.05
2022-09-01T11:52:21.589Z,101055.84
2022-09-01T11:54:51.140Z,101061.05
2022-09-01T11:57:29.039Z,101062.73
2022-09-01T12:00:00.037Z,101056.16
2022-09-01T12:02:36.895Z,101057.20
2022-09-01T12:05:25.265Z,101054.78
2022-09-01T12:07:54.211Z,101050.36
2022-09-01T12:10:34.027Z,101043.55
2022-09-01T12:13:05.786Z,101049.02
2022-09-01T12:15:37.594Z,101056.88
2022-09-01T12:18:18.515Z,101059.08
2022-09-01T12:23:26.311Z,101057.20
2022-09-01T12:25:58.397Z,101047.25
2022-09-01T12:28:30.740Z,101037.57
2022-09-01T12:31:02.771Z,101036.15
2022-09-01T12:33:37.331Z,101031.40
2022-09-01T12:36:19.653Z,101029.04
2022-09-01T12:38:49.641Z,101027.21
2022-09-01T12:41:36.112Z,101026.96
2022-09-01T12:44:34.202Z,101028.19
2022-09-01T12:47:06.492Z,101029.67
2022-09-01T12:49:48.025Z,101034.73
2022-09-01T12:52:27.386Z,101032.23
2022-09-01T12:55:47.199Z,101033.80
2022-09-01T12:58:05.314Z,101037.05
2022-09-01T13:00:39.136Z,101034.34
2022-09-01T13:03:13.971Z,101029.60
2022-09-01T13:05:43.622Z,101025.41
2022-09-01T13:08:16.775Z,101020.73
2022-09-01T13:10:47.975Z,101025.36
2022-09-01T13:13:18.292Z,101028.25
2022-09-01T13:15:50.386Z,101026.04
2022-09-01T13:18:21.212Z,101022.21
2022-09-01T13:20:51.967Z,101018.79
2022-09-01T13:23:21.390Z,101016.74
2022-09-01T13:25:50.580Z,101012.36
2022-09-01T13:36:48.170Z,101002.66
2022-09-01T13:39:21.071Z,101003.08
2022-09-01T13:41:50.066Z,100999.59
2022-09-01T13:44:21.497Z,101005.05
2022-09-01T13:50:04.577Z,101017.02
2022-09-01T13:52:29.284Z,101018.34
2022-09-01T13:54:57.716Z,101018.52
2022-09-01T13:57:26.797Z,101022.63
2022-09-01T13:59:59.526Z,101022.08
2022-09-01T14:02:28.402Z,101025.20
2022-09-01T14:04:56.805Z,101023.42
2022-09-01T14:07:25.285Z,101026.85
2022-09-01T14:09:54.467Z,101029.14
2022-09-01T14:12:22.882Z,101030.16
2022-09-01T14:17:39.937Z,101023.85
2022-09-01T14:20:13.470Z,101029.25
2022-09-01T14:22:41.715Z,101030.25
2022-09-01T14:25:11.533Z,101023.73
2022-09-01T14:27:39.811Z,101025.84
2022-09-01T14:30:12.096Z,101020.61
2022-09-01T14:32:40.580Z,101022.11
2022-09-01T14:35:09.984Z,101016.85
2022-09-01T14:37:38.662Z,101015.54
2022-09-01T14:40:10.181Z,101009.70
2022-09-01T14:42:48.792Z,101008.65
2022-09-01T14:45:18.982Z,101008.55
2022-09-01T14:47:48.417Z,101013.73
2022-09-01T14:50:22.720Z,101012.99
2022-09-01T14:52:54.175Z,101020.23
2022-09-01T14:55:25.192Z,101021.60
2022-09-01T14:57:55.041Z,101021.51
2022-09-01T15:00:24.927Z,101024.55
2022-09-01T15:02:56.431Z,101017.49
2022-09-01T15:05:25.923Z,101019.06
2022-09-01T15:07:54.442Z,101020.60
2022-09-01T15:10:42.743Z,101017.82
2022-09-01T15:13:11.759Z,101017.21
2022-09-01T15:15:40.703Z,101016.58
2022-09-01T15:18:09.186Z,101019.26
2022-09-01T15:20:48.036Z,101021.09
2022-09-01T15:23:19.156Z,101019.54
2022-09-01T15:25:48.749Z,101018.98
2022-09-01T15:28:17.322Z,101019.76
2022-09-01T15:30:46.651Z,101022.62
2022-09-01T15:33:16.222Z,101023.49
2022-09-01T15:35:45.432Z,101019.85
2022-09-01T15:38:17.947Z,101022.53
2022-09-01T15:40:48.792Z,101016.16
2022-09-01T15:43:26.972Z,101013.27
2022-09-01T15:45:57.748Z,101007.73
2022-09-01T15:48:28.437Z,101007.50
2022-09-01T15:51:26.560Z,101006.79
2022-09-01T15:53:57.568Z,101003.13
2022-09-01T15:56:27.921Z,101004.54
2022-09-01T15:59:02.265Z,101007.27
2022-09-01T16:01:33.231Z,101007.10
2022-09-01T16:04:03.350Z,101006.63
2022-09-01T16:06:34.384Z,101004.69
2022-09-01T16:09:02.813Z,101004.74
2022-09-01T16:11:36.288Z,101006.77
2022-09-01T16:14:05.914Z,101003.23
2022-09-01T16:16:52.673Z,100998.38
2022-09-01T16:19:35.970Z,101003.58
2022-09-01T16:22:15.780Z,100999.20
2022-09-01T16:24:50.748Z,100998.73
2022-09-01T16:27:24.575Z,101000.11
2022-09-01T16:29:56.137Z,100997.25
2022-09-01T16:32:28.695Z,101000.25
2022-09-01T16:34:58.183Z,100995.81
2022-09-01T16:37:40.023Z,101000.73
2022-09-01T16:40:15.645Z,101005.08
2022-09-01T16:42:50.139Z,101009.04
2022-09-01T16:45:42.873Z,101002.55
2022-09-01T16:48:20.634Z,101006.97
2022-09-01T16:50:55.454Z,101008.83
2022-09-01T16:53:44.794Z,101002.63
2022-09-01T16:56:18.700Z,101011.18
2022-09-01T16:58:51.870Z,101013.39
2022-09-01T17:01:38.881Z,101016.21
2022-09-01T17:04:18.829Z,101019.58
2022-09-01T17:06:59.828Z,101023.85
2022-09-01T17:09:34.985Z,101023.02
2022-09-01T17:12:22.920Z,101022.34
2022-09-01T17:14:57.736Z,101028.98
2022-09-01T17:17:37.936Z,101026.91
2022-09-01T17:20:08.436Z,101029.90
2022-09-01T17:22:38.007Z,101033.25
2022-09-01T17:25:10.162Z,101034.11
2022-09-01T17:27:47.950Z,101036.74
2022-09-01T17:30:19.494Z,101038.16
2022-09-01T17:33:08.841Z,101043.48
2022-09-01T17:35:58.531Z,101046.81
2022-09-01T17:38:33.936Z,101052.96
2022-09-01T17:41:12.150Z,101054.60
2022-09-01T17:43:54.934Z,101059.34
2022-09-01T17:46:34.125Z,101066.40
2022-09-01T17:49:08.095Z,101065.92
2022-09-01T17:51:42.742Z,101071.31
2022-09-01T17:54:18.851Z,101075.86
2022-09-01T17:56:53.881Z,101080.23
2022-09-01T17:59:29.251Z,101078.45
2022-09-01T18:02:05.018Z,101082.44
2022-09-01T18:04:45.102Z,101085.31
2022-09-01T18:07:26.417Z,101087.98
2022-09-01T18:09:56.921Z,101091.23
2022-09-01T18:12:29.159Z,101089.65
2022-09-01T18:15:04.055Z,101092.53
2022-09-01T18:17:37.764Z,101095.25
2022-09-01T18:20:11.609Z,101100.83
2022-09-01T18:22:45.243Z,101103.86
2022-09-01T18:25:18.861Z,101108.70
2022-09-01T18:27:47.706Z,101110.32
2022-09-01T18:30:26.241Z,101117.17
2022-09-01T18:33:09.597Z,101121.97
2022-09-01T18:35:43.526Z,101124.39
2022-09-01T18:38:31.365Z,101123.10
2022-09-01T18:41:14.650Z,101124.88
2022-09-01T18:43:45.362Z,101131.01
2022-09-01T18:46:17.946Z,101132.37
2022-09-01T18:48:58.574Z,101132.69
2022-09-01T18:51:42.941Z,101132.16
2022-09-01T18:54:18.770Z,101136.24
2022-09-01T18:56:52.821Z,101134.80
2022-09-01T18:59:36.503Z,101137.89
2022-09-01T19:02:15.963Z,101137.98
2022-09-01T19:04:45.551Z,101140.80
2022-09-01T19:07:23.798Z,101140.98
2022-09-01T19:09:58.180Z,101145.13
2022-09-01T19:12:32.581Z,101144.72
2022-09-01T19:15:07.501Z,101144.89
2022-09-01T19:17:56.499Z,101147.08
2022-09-01T19:20:30.303Z,101146.45
2022-09-01T19:23:02.537Z,101147.52
2022-09-01T19:25:33.690Z,101146.16
2022-09-01T19:28:06.769Z,101147.30
2022-09-01T19:30:38.513Z,101146.14
2022-09-01T19:33:08.063Z,101151.10
2022-09-01T19:35:36.727Z,101148.73
2022-09-01T19:38:08.108Z,101149.88
2022-09-01T19:40:38.342Z,101147.88
2022-09-01T19:43:10.987Z,101150.42
2022-09-01T19:45:47.567Z,101152.69
2022-09-01T19:48:21.339Z,101150.05
2022-09-01T19:50:51.114Z,101151.42
2022-09-01T19:53:30.576Z,101153.71
2022-09-01T19:56:04.851Z,101154.84
2022-09-01T19:58:44.244Z,101156.55
2022-09-01T20:01:15.965Z,101163.55
2022-09-01T20:03:49.338Z,101167.88
2022-09-01T20:06:25.553Z,101168.73
2022-09-01T20:08:56.903Z,101173.27
2022-09-01T20:11:36.851Z,101175.41
2022-09-01T20:14:17.465Z,101174.85
2022-09-01T20:16:49.375Z,101176.25
2022-09-01T20:19:24.143Z,101179.67
2022-09-01T20:21:53.078Z,101179.04
2022-09-01T20:24:28.091Z,101185.03
2022-09-01T20:27:03.215Z,101182.89
2022-09-01T20:29:42.261Z,101186.96
2022-09-01T20:32:14.763Z,101189.99
2022-09-01T20:34:46.799Z,101197.61
2022-09-01T20:37:20.934Z,101197.85
2022-09-01T20:40:03.723Z,101202.74
2022-09-01T20:42:43.075Z,101209.70
2022-09-01T20:45:14.978Z,101209.41
2022-09-01T20:47:49.902Z,101210.60
2022-09-01T20:50:19.798Z,101215.39
2022-09-01T20:53:10.778Z,101214.83
2022-09-01T20:55:41.930Z,101213.44
2022-09-01T20:58:22.742Z,101215.91
2022-09-01T21:01:14.225Z,101216.80
2022-09-01T21:03:56.493Z,101218.80
2022-09-01T21:06:35.014Z,101220.02
2022-09-01T21:09:08.963Z,101218.42
2022-09-01T21:11:40.035Z,101219.64
2022-09-01T21:14:29.607Z,101220.59
2022-09-01T21:17:09.160Z,101217.99
2022-09-01T21:19:46.220Z,101222.53
2022-09-01T21:22:21.179Z,101224.74
2022-09-01T21:24:51.101Z,101228.80
2022-09-01T21:27:22.244Z,101227.52
2022-09-01T21:29:55.845Z,101228.95
2022-09-01T21:32:24.008Z,101227.25
2022-09-01T21:34:53.642Z,101231.95
2022-09-01T21:37:23.138Z,101235.41
2022-09-01T21:39:54.904Z,101239.07
2022-09-01T21:42:25.446Z,101239.73
2022-09-01T21:44:56.107Z,101240.86
2022-09-01T21:47:24.818Z,101243.65
2022-09-01T21:49:53.284Z,101245.41
2022-09-01T21:52:21.928Z,101242.20
2022-09-01T21:54:50.651Z,101246.90
2022-09-01T21:57:20.616Z,101249.73
2022-09-01T21:59:49.358Z,101251.67
2022-09-01T22:02:19.445Z,101253.85
2022-09-01T22:04:49.672Z,101252.91
2022-09-01T22:07:20.549Z,101251.12
2022-09-01T22:09:49.650Z,101249.08
2022-09-01T22:12:18.449Z,101248.27
2022-09-01T22:14:46.732Z,101249.83
2022-09-01T22:17:15.067Z,101248.26
2022-09-01T22:19:43.611Z,101246.73
2022-09-01T22:22:14.321Z,101243.74
2022-09-01T22:24:42.672Z,101242.42
2022-09-01T22:27:11.895Z,101246.23
2022-09-01T22:29:40.471Z,101247.10
2022-09-01T22:32:09.212Z,101246.66
2022-09-01T22:34:38.222Z,101249.10
2022-09-01T22:37:07.347Z,101248.79
2022-09-01T22:39:35.726Z,101248.77
2022-09-01T22:42:07.989Z,101250.88
2022-09-01T22:44:36.761Z,101254.41
2022-09-01T22:47:06.942Z,101255.64
2022-09-01T22:49:35.711Z,101257.24
2022-09-01T22:52:04.520Z,101258.61
2022-09-01T22:54:33.118Z,101260.20
2022-09-01T22:57:02.482Z,101255.06
2022-09-01T22:59:31.460Z,101253.90
2022-09-01T23:02:01.272Z,101252.20
2022-09-01T23:04:31.819Z,101252.20
2022-09-01T23:07:00.463Z,101253.73
2022-09-01T23:09:28.943Z,101255.52
2022-09-01T23:11:57.492Z,101259.54
2022-09-01T23:14:26.333Z,101258.98
2022-09-01T23:16:54.901Z,101257.14
2022-09-01T23:19:24.861Z,101256.46
2022-09-01T23:21:55.654Z,101257.17
2022-09-01T23:24:24.343Z,101255.58
2022-09-01T23:26:52.649Z,101258.00
2022-09-01T23:29:21.344Z,101258.19
2022-09-01T23:31:49.730Z,101258.79
2022-09-01T23:34:18.217Z,101260.48
2022-09-01T23:36:46.579Z,101255.64
2022-09-01T23:39:14.951Z,101257.27
2022-09-01T23:41:43.516Z,101255.96
2022-09-01T23:44:12.525Z,101260.70
2022-09-01T23:46:44.364Z,101260.02
2022-09-01T23:49:15.428Z,101262.32
2022-09-01T23:51:45.001Z,101261.97
2022-09-01T23:54:14.212Z,101262.99
2022-09-01T23:56:42.832Z,101261.79
2022-09-01T23:59:11.557Z,101261.81
